x

Fripp Nearshore (frp 2) (41033) Weather Station

2:08am - Sun 30th Apr 2017 All times are EDT. -4 hours from GMT.

  • Wind
    7mph, 11mph gusts
  • Sea Temp 73°f
  • Air Temp 74°f
  • Sea Pressure 1021.4mb
  • Fripp Nearshore (frp 2)
  • Fripp Nearshore (frp 2)

More Historic Weather Station data

Upgrade to MSW Pro to gain access to the past 30 days of data for over 8000 Wavebouys and Weather Stations around the globe.

Join Pro

Comparision Forecast

View Surf forecast
   
Sun 04/30 2:08am 7 11 mph 1021.4mb 73f 74f
1:08am 9 13 mph 1021.6mb 73f 74f
12:08am 11 13 mph 1021.8mb 73f 75f
Sat 04/29 11:08pm 11 16 mph 1021.7mb 75f 75f
10:08pm 11 16 mph 1021.9mb 76f 75f
9:08pm 11 16 mph 1021.5mb 76f 76f
8:08pm 11 13 mph 1021.4mb 76f 76f
7:08pm 9 13 mph 1021.6mb 77f 76f
6:08pm 9 11 mph 1021.7mb 77f 77f
5:08pm 9 11 mph 1022.1mb 78f 77f
4:08pm 9 11 mph 1022.2mb 78f 76f
3:08pm 7 11 mph 1022.6mb 77f 77f
2:08pm 7 9 mph 1022.9mb 75f 76f
1:08pm 7 9 mph 1022.9mb 74f 76f
12:08pm 7 9 mph 1023.1mb 74f 75f
11:08am 7 9 mph 1023.4mb 74f 75f
10:08am 4 7 mph 1023.5mb 74f 75f
9:08am 7 9 mph 1023.2mb 73f 74f
8:08am 18 20 mph 1022.5mb 73f 74f
7:08am 9 11 mph 1021.6mb 73f 74f
6:08am 11 13 mph 1020.9mb 74f 74f
5:08am  -  mph 1020.6mb 74f 74f
4:08am 11 16 mph 1020.2mb 73f 74f
3:08am 13 18 mph 1020.2mb 73f 74f
2:08am 16 20 mph 1020.1mb 74f 74f
1:08am 16 20 mph 1020.2mb 73f 75f
12:08am 13 18 mph 1020.1mb 72f 74f
Fri 04/28 11:08pm 13 18 mph 1020.3mb 72f 74f
10:08pm 16 20 mph 1020.2mb 74f 75f
9:08pm 16 18 mph 1019.5mb 74f 75f
8:08pm 16 18 mph 1018.8mb 75f 75f
7:08pm 13 16 mph 1018.6mb 74f 76f
6:08pm 9 11 mph 1018.7mb 75f 76f
5:08pm 9 13 mph 1018.6mb 75f 76f
4:08pm 9 13 mph 1018.8mb 76f 76f
3:08pm 11 13 mph 1018.8mb 75f 75f
2:08pm 7 11 mph 1019.2mb 74f 74f
1:08pm 11 13 mph 1019.4mb 74f 74f
12:08pm 7 13 mph 1019.2mb 73f 74f
11:08am 7 9 mph 1018.9mb 72f 74f
10:08am 7 11 mph 1018.3mb 73f 73f
9:08am 7 11 mph 1017.9mb 73f 73f
8:08am  -  mph 1017.4mb 72f 73f
7:08am 9 13 mph 1016.5mb 72f 73f
6:08am 11 16 mph 1015.5mb 73f 73f
5:08am 11 16 mph 1015.2mb 73f 73f
4:08am 11 16 mph 1015mb 73f 74f
3:08am 13 16 mph 1014.8mb 73f 74f
2:08am 18 20 mph 1013.9mb 73f 74f
1:08am 18 20 mph 1013.7mb 73f 74f
12:08am 11 13 mph 1014.1mb 72f 73f
Thu 04/27 11:08pm 11 16 mph 1014.3mb 71f 73f
10:08pm 16 22 mph 1013.2mb 71f 74f
9:08pm 16 22 mph 1011.9mb 72f 74f
8:08pm 18 22 mph 1011.5mb 73f 74f
7:08pm 18 22 mph 1011.6mb 74f 74f
5:08pm 16 20 mph 1012.2mb 74f 75f
4:08pm 16 20 mph 1012mb 74f 75f
3:08pm 13 18 mph 1012.7mb 75f 74f
2:08pm 13 16 mph 1012.8mb 74f 74f
1:08pm 11 16 mph 1013mb 74f 73f
12:08pm 9 13 mph 1013.6mb 73f 73f
11:08am 7 11 mph 1013.7mb 72f 72f
10:08am 7 9 mph 1013.9mb 71f 72f
9:08am 7 11 mph 1013.8mb 71f 72f
8:08am 9 13 mph 1013.2mb 71f 72f
7:08am 11 16 mph 1011.9mb 71f 71f
6:08am 13 16 mph 1011.4mb 71f 71f
5:08am 13 18 mph 1011.3mb 72f 72f
4:08am 16 22 mph 1011.3mb 72f 72f
3:08am 18 31 mph 1011.5mb 72f 72f
2:08am 16 20 mph 1011.6mb 72f 72f
1:08am 13 18 mph 1011.9mb 71f 72f
12:08am 13 18 mph 1011.7mb 72f 72f
Wed 04/26 11:08pm 13 18 mph 1011.6mb 72f 72f
10:08pm 13 16 mph 1011.2mb 72f 72f
9:08pm 13 16 mph 1011mb 71f 72f
8:08pm 13 18 mph 1010.7mb 73f 71f
7:08pm 13 18 mph 1010.3mb 74f 73f
6:08pm 9 13 mph 1010.1mb 73f 73f
5:08pm 11 16 mph 1010.1mb 73f 74f
4:08pm 7 11 mph 1010.1mb 73f 74f
3:08pm 9 13 mph 1010.4mb 74f 73f
2:08pm 11 16 mph 1011.2mb 74f 72f
1:08pm 9 13 mph 1011.7mb 74f 71f
12:08pm 13 16 mph 1012.2mb 72f 70f
11:08am 11 13 mph 1012mb 71f 70f
10:08am 7 11 mph 1011.2mb 71f 71f
9:08am 11 13 mph 1010.1mb 70f 70f
8:08am 11 16 mph 1009.8mb 70f 70f